Карточка аэропорта UWUU

Внимание!
Информация на этой странице в стадии наполнения.
Если вы не увидели какой-то информации, или заметили неточность - пожалуйста сообщите нам!
Спасибо!
Команда RU-STAFF
Название аэропортаУфа
Название аэропорта (англ.)Ufa
Превышение449 ft. (136.9 m.)
Координаты54°33.6', 55°52.2'
Высота перехода5000ft
Эшелон переходаFL070
Коды ответчика6730-6731
Зона ОрВДСамара РПИ (UWWW)
Данные METARUWUU 272030Z 03002MPS 360V060 9999 OVC027 01/M01 Q1021 R32L/0///60 NOSIG
Проноз погоды (TAF)UWUU 271959Z 2721/2821 04003G08MPS 6000 BKN020 TX07/2810Z TNM02/2802Z TEMPO 2721/2806 36003MPS 0300 FG SCT003 FM280600 09003G08MPS 9999 FEW007 BKN020 TEMPO 2812/2821 12005G12MPS 4500 -SHRA BKN010CB
NOTAMshow/hide NOTAM
AWOS   TABLE

Информация о ВПП

ВПП Длина ВПП (м.) Покрытие Курс ВПП Частота ILS
14R3765Бетон138110.3
14L2516Асфальтобетон138108.3
32R2516Асфальтобетон318109.1
32L3765Бетон318 

Диспетчерские позиции

Позывной Наименование органа УВД Частота
UWUU_GNDУфа-Руление119.000
UWUU_TWRУфа-Старт120.900
UWUU_APPУфа-Подход126.000



Спутниковое изображение